Time;durP1;ratioP1;P1;durP2;ratioP2;P2;SDS_P1;SDS_P2;PMS_P1;PMS_P2;Temp;Humidity;BMP_temperature;BMP_pressure;BME280_temperature;BME280_humidity;BME280_pressure;Samples;Min_cycle;Max_cycle;Signal;HPM_P1;HPM_P2
2021/07/06 00:02:19;;;;;;;4.50;1.08;;;;;;;;;;5053473;28;20040;-67
2021/07/06 00:04:48;;;;;;;5.57;0.85;;;;;;;;;;5048247;28;20368;-68
2021/07/06 00:07:18;;;;;;;4.53;1.00;;;;;;;;;;5028043;28;20506;-68
2021/07/06 00:09:47;;;;;;;3.88;0.82;;;;;;;;;;5029434;28;20118;-68
2021/07/06 00:12:14;;;;;;;5.85;1.00;;;;;;;;;;5046777;28;20060;-68
2021/07/06 00:14:41;;;;;;;2.33;1.00;;;;;;;;;;5036979;28;20021;-68
2021/07/06 00:17:08;;;;;;;1.67;0.80;;;;;;;;;;5029074;28;20485;-68
2021/07/06 00:19:35;;;;;;;2.00;0.80;;;;;;;;;;5039500;28;20068;-68
2021/07/06 00:22:03;;;;;;;3.20;0.90;;;;;;;;;;5049359;28;20071;-68
2021/07/06 00:24:30;;;;;;;4.43;0.70;;;;;;;;;;5029022;28;20051;-68
2021/07/06 00:26:57;;;;;;;4.78;0.70;;;;;;;;;;5035578;28;20022;-68
2021/07/06 00:29:24;;;;;;;1.75;0.40;;;;;;;;;;5022923;28;20055;-68
2021/07/06 00:31:51;;;;;;;2.78;0.52;;;;;;;;;;5041917;28;20025;-68
2021/07/06 00:34:19;;;;;;;4.40;0.60;;;;;;;;;;5014884;28;20476;-68
2021/07/06 00:36:46;;;;;;;2.25;0.47;;;;;;;;;;5039576;28;20109;-67
2021/07/06 00:39:13;;;;;;;3.25;0.50;;;;;;;;;;5015163;28;20029;-67
2021/07/06 00:41:40;;;;;;;2.60;0.40;;;;;;;;;;5049213;28;20041;-68
2021/07/06 00:44:13;;;;;;;1.77;0.50;;;;;;;;;;5049025;28;20025;-68
2021/07/06 00:46:40;;;;;;;1.27;0.47;;;;;;;;;;5048301;28;20045;-67
2021/07/06 00:49:08;;;;;;;1.30;0.40;;;;;;;;;;5030275;28;20532;-67
2021/07/06 00:51:35;;;;;;;5.70;1.02;;;;;;;;;;5045903;28;21570;-66
2021/07/06 00:54:03;;;;;;;1.90;0.40;;;;;;;;;;5040104;28;20060;-67
2021/07/06 00:56:30;;;;;;;2.53;0.55;;;;;;;;;;5042045;28;20032;-67
2021/07/06 00:58:57;;;;;;;3.50;0.70;;;;;;;;;;5017978;28;20045;-67
2021/07/06 01:01:24;;;;;;;1.17;0.50;;;;;;;;;;5053772;28;20032;-68
2021/07/06 01:03:54;;;;;;;6.35;1.40;;;;;;;;;;5044765;28;20037;-67
2021/07/06 01:06:21;;;;;;;5.53;0.60;;;;;;;;;;5029202;28;20482;-66
2021/07/06 01:08:49;;;;;;;2.95;0.40;;;;;;;;;;5041396;28;20029;-67
2021/07/06 01:11:17;;;;;;;2.40;0.52;;;;;;;;;;5037802;28;20026;-66
2021/07/06 01:13:44;;;;;;;2.55;0.60;;;;;;;;;;5038347;28;20056;-66
2021/07/06 01:16:12;;;;;;;3.83;1.25;;;;;;;;;;5044991;28;20546;-66
2021/07/06 01:18:39;;;;;;;2.10;0.60;;;;;;;;;;5043558;28;20147;-66
2021/07/06 01:21:06;;;;;;;4.68;0.65;;;;;;;;;;5022361;28;20043;-66
2021/07/06 01:23:34;;;;;;;1.77;0.60;;;;;;;;;;5035408;28;20018;-66
2021/07/06 01:26:06;;;;;;;3.53;0.65;;;;;;;;;;5039028;28;20025;-66
2021/07/06 01:28:36;;;;;;;3.78;0.60;;;;;;;;;;5042073;28;20017;-66
2021/07/06 01:31:04;;;;;;;2.97;0.60;;;;;;;;;;5043139;28;20025;-69
2021/07/06 01:33:32;;;;;;;1.30;0.57;;;;;;;;;;5031655;28;20032;-66
2021/07/06 01:36:05;;;;;;;8.80;0.70;;;;;;;;;;5039882;28;20450;-68
2021/07/06 01:38:32;;;;;;;4.55;0.85;;;;;;;;;;5031316;28;20084;-67
2021/07/06 01:41:00;;;;;;;2.88;0.63;;;;;;;;;;5034011;28;20017;-66
2021/07/06 01:43:27;;;;;;;4.88;0.80;;;;;;;;;;5041878;28;20025;-67
2021/07/06 01:45:55;;;;;;;5.47;0.90;;;;;;;;;;5041284;28;20071;-67
2021/07/06 01:48:22;;;;;;;1.33;0.40;;;;;;;;;;5036187;28;20013;-67
2021/07/06 01:50:49;;;;;;;3.75;1.05;;;;;;;;;;5038738;28;20505;-67
2021/07/06 01:53:18;;;;;;;3.42;0.98;;;;;;;;;;5045436;28;20021;-67
2021/07/06 01:55:47;;;;;;;5.05;1.17;;;;;;;;;;5044915;28;20025;-67
2021/07/06 01:58:15;;;;;;;2.90;0.60;;;;;;;;;;5064686;28;20029;-67
2021/07/06 02:00:44;;;;;;;4.40;0.93;;;;;;;;;;5041811;28;21797;-67
2021/07/06 02:03:11;;;;;;;3.58;0.43;;;;;;;;;;5058780;28;20036;-67
2021/07/06 02:05:43;;;;;;;2.85;0.60;;;;;;;;;;5055309;28;20017;-68
2021/07/06 02:08:19;;;;;;;4.10;0.60;;;;;;;;;;5032991;28;20087;-67
2021/07/06 02:10:48;;;;;;;2.30;0.60;;;;;;;;;;5047067;28;20029;-67
2021/07/06 02:13:17;;;;;;;2.55;0.90;;;;;;;;;;5060860;28;20056;-67
2021/07/06 02:15:44;;;;;;;2.80;0.80;;;;;;;;;;5044409;28;20095;-67
2021/07/06 02:18:17;;;;;;;23.40;1.00;;;;;;;;;;5049948;28;20017;-67
2021/07/06 02:20:44;;;;;;;2.92;1.20;;;;;;;;;;5048561;28;20029;-68
2021/07/06 02:23:12;;;;;;;2.80;0.47;;;;;;;;;;5053221;28;20481;-67
2021/07/06 02:25:39;;;;;;;3.50;0.80;;;;;;;;;;5051753;28;20070;-67
2021/07/06 02:28:06;;;;;;;3.78;1.27;;;;;;;;;;5052159;28;20025;-67
2021/07/06 02:30:34;;;;;;;5.07;1.15;;;;;;;;;;5049603;28;20028;-67
2021/07/06 02:33:01;;;;;;;1.85;0.80;;;;;;;;;;5052251;28;20540;-67
2021/07/06 02:35:28;;;;;;;1.70;0.80;;;;;;;;;;5058569;28;20052;-67
2021/07/06 02:37:57;;;;;;;3.45;1.00;;;;;;;;;;5055684;28;20017;-67
2021/07/06 02:40:24;;;;;;;2.78;0.80;;;;;;;;;;5057471;28;20040;-68
2021/07/06 02:42:52;;;;;;;2.70;1.17;;;;;;;;;;5054934;28;20078;-67
2021/07/06 02:45:20;;;;;;;1.92;0.60;;;;;;;;;;5056135;28;20025;-67
2021/07/06 02:47:47;;;;;;;5.80;0.63;;;;;;;;;;5052585;28;20074;-67
2021/07/06 02:50:15;;;;;;;2.72;0.68;;;;;;;;;;5054481;28;20055;-68
2021/07/06 02:52:43;;;;;;;2.78;0.45;;;;;;;;;;5054558;28;20424;-67
2021/07/06 02:55:10;;;;;;;2.88;0.60;;;;;;;;;;5055510;28;20028;-68
2021/07/06 02:57:39;;;;;;;3.85;0.50;;;;;;;;;;5048800;28;20441;-67
2021/07/06 03:00:23;;;;;;;2.45;0.60;;;;;;;;;;5053834;28;20113;-68
2021/07/06 03:02:54;;;;;;;2.47;0.60;;;;;;;;;;5049536;28;20108;-68
2021/07/06 03:05:22;;;;;;;3.83;0.70;;;;;;;;;;5057728;28;20028;-68
2021/07/06 03:07:49;;;;;;;5.60;0.82;;;;;;;;;;5053523;28;20068;-68
2021/07/06 03:10:19;;;;;;;3.10;0.65;;;;;;;;;;5056310;28;20064;-68
2021/07/06 03:12:46;;;;;;;1.55;0.60;;;;;;;;;;5048197;28;20031;-68
2021/07/06 03:15:15;;;;;;;5.00;0.98;;;;;;;;;;5047871;28;20021;-68
2021/07/06 03:17:43;;;;;;;1.42;0.47;;;;;;;;;;5052563;28;20523;-68
2021/07/06 03:20:11;;;;;;;5.28;1.00;;;;;;;;;;5050160;28;20079;-68
2021/07/06 03:22:38;;;;;;;1.55;0.50;;;;;;;;;;5039778;28;20050;-68
2021/07/06 03:25:06;;;;;;;1.65;0.40;;;;;;;;;;5049794;28;20136;-68
2021/07/06 03:27:34;;;;;;;3.53;0.88;;;;;;;;;;5051515;28;20048;-68
2021/07/06 03:30:01;;;;;;;1.48;0.40;;;;;;;;;;5053176;28;20025;-67
2021/07/06 03:32:28;;;;;;;4.82;0.98;;;;;;;;;;5051103;28;20033;-68
2021/07/06 03:34:55;;;;;;;3.67;0.63;;;;;;;;;;5054145;28;20547;-68
2021/07/06 03:37:22;;;;;;;3.17;0.60;;;;;;;;;;5052331;28;20024;-68
2021/07/06 03:39:50;;;;;;;2.88;0.60;;;;;;;;;;5055910;28;20463;-68
2021/07/06 03:42:17;;;;;;;3.00;0.60;;;;;;;;;;5054435;28;20028;-68
2021/07/06 03:44:44;;;;;;;2.90;0.98;;;;;;;;;;5062332;28;20438;-68
2021/07/06 03:47:11;;;;;;;3.20;0.60;;;;;;;;;;5060913;28;20020;-68
2021/07/06 03:49:38;;;;;;;1.85;0.63;;;;;;;;;;5057305;28;20029;-67
2021/07/06 03:52:05;;;;;;;1.58;0.40;;;;;;;;;;5040777;28;20037;-67
2021/07/06 03:54:33;;;;;;;1.45;0.50;;;;;;;;;;5024761;28;20035;-67
2021/07/06 03:57:00;;;;;;;1.42;0.30;;;;;;;;;;5043499;28;20029;-67
2021/07/06 03:59:27;;;;;;;2.63;0.30;;;;;;;;;;5044241;28;20470;-67
2021/07/06 04:01:55;;;;;;;2.35;0.30;;;;;;;;;;5036429;28;20064;-65
2021/07/06 04:04:23;;;;;;;1.98;0.30;;;;;;;;;;5043928;28;20029;-68
2021/07/06 04:06:51;;;;;;;1.23;0.30;;;;;;;;;;5038665;28;20013;-67
2021/07/06 04:09:18;;;;;;;3.33;0.50;;;;;;;;;;5045887;28;20029;-68
2021/07/06 04:11:45;;;;;;;3.72;0.70;;;;;;;;;;5044320;28;20033;-68
2021/07/06 04:14:12;;;;;;;2.35;0.50;;;;;;;;;;5041195;28;20356;-67
2021/07/06 04:16:39;;;;;;;1.80;0.45;;;;;;;;;;5046965;28;20469;-68
2021/07/06 04:19:07;;;;;;;2.00;0.70;;;;;;;;;;5041643;28;20029;-68
2021/07/06 04:21:37;;;;;;;1.23;0.45;;;;;;;;;;5047654;28;20043;-68
2021/07/06 04:24:04;;;;;;;3.22;0.40;;;;;;;;;;5034955;28;20389;-68
2021/07/06 04:26:31;;;;;;;1.85;0.40;;;;;;;;;;5043822;28;20024;-68
2021/07/06 04:28:58;;;;;;;2.78;0.32;;;;;;;;;;5035502;28;20461;-68
2021/07/06 04:31:26;;;;;;;2.85;0.47;;;;;;;;;;5037133;28;20033;-68
2021/07/06 04:33:53;;;;;;;0.63;0.30;;;;;;;;;;5038691;28;20045;-67
2021/07/06 04:36:20;;;;;;;2.88;0.85;;;;;;;;;;5045801;28;20049;-67
2021/07/06 04:38:47;;;;;;;1.70;0.70;;;;;;;;;;5037251;28;20025;-67
2021/07/06 04:41:14;;;;;;;2.95;0.63;;;;;;;;;;5038512;28;20029;-67
2021/07/06 04:43:44;;;;;;;2.55;0.50;;;;;;;;;;5046777;28;20053;-67
2021/07/06 04:46:11;;;;;;;2.30;0.60;;;;;;;;;;5038766;28;20025;-67
2021/07/06 04:48:38;;;;;;;1.45;0.52;;;;;;;;;;5041898;28;20158;-67
2021/07/06 04:51:07;;;;;;;5.18;0.65;;;;;;;;;;5044838;28;20381;-67
2021/07/06 04:53:36;;;;;;;4.22;0.70;;;;;;;;;;5033142;28;20026;-67
2021/07/06 04:56:03;;;;;;;2.92;0.40;;;;;;;;;;5042086;28;20064;-67
2021/07/06 04:58:30;;;;;;;1.83;0.52;;;;;;;;;;5031746;28;20080;-67
2021/07/06 05:00:59;;;;;;;1.83;0.50;;;;;;;;;;5049613;28;20091;-68
2021/07/06 05:03:28;;;;;;;2.63;0.60;;;;;;;;;;5036177;28;20032;-68
2021/07/06 05:05:56;;;;;;;1.67;0.50;;;;;;;;;;5045939;28;20377;-68
2021/07/06 05:08:23;;;;;;;3.75;1.13;;;;;;;;;;5042572;28;20021;-68
2021/07/06 05:10:51;;;;;;;2.60;0.90;;;;;;;;;;5053060;28;20536;-68
2021/07/06 05:13:18;;;;;;;2.42;0.63;;;;;;;;;;5053752;28;20032;-68
2021/07/06 05:15:45;;;;;;;1.52;0.70;;;;;;;;;;5044174;28;20029;-68
2021/07/06 05:18:12;;;;;;;3.67;0.63;;;;;;;;;;5030325;28;20396;-68
2021/07/06 05:20:40;;;;;;;9.02;0.90;;;;;;;;;;5048649;28;20063;-68
2021/07/06 05:23:07;;;;;;;2.95;0.73;;;;;;;;;;5047528;28;20032;-66
2021/07/06 05:25:34;;;;;;;4.45;0.68;;;;;;;;;;5034872;28;20397;-68
2021/07/06 05:28:01;;;;;;;1.67;0.68;;;;;;;;;;5053764;28;20017;-68
2021/07/06 05:30:28;;;;;;;2.83;1.15;;;;;;;;;;5056244;28;20497;-68
2021/07/06 05:32:57;;;;;;;2.25;0.80;;;;;;;;;;5053109;28;20509;-68
2021/07/06 05:35:24;;;;;;;2.17;0.63;;;;;;;;;;5040635;28;20554;-68
2021/07/06 05:37:52;;;;;;;7.40;0.80;;;;;;;;;;5032677;28;20397;-69
2021/07/06 05:40:19;;;;;;;3.75;0.95;;;;;;;;;;5031664;28;20052;-68
2021/07/06 05:42:46;;;;;;;7.68;1.85;;;;;;;;;;5049307;28;20108;-68
2021/07/06 05:45:14;;;;;;;3.20;0.90;;;;;;;;;;5054665;28;20057;-68
2021/07/06 05:47:41;;;;;;;5.10;1.02;;;;;;;;;;5044452;28;20029;-68
2021/07/06 05:50:11;;;;;;;2.92;0.80;;;;;;;;;;5052677;28;20045;-67
2021/07/06 05:52:38;;;;;;;3.72;1.00;;;;;;;;;;5043795;28;20028;-68
2021/07/06 05:55:06;;;;;;;2.90;0.80;;;;;;;;;;5029542;28;20029;-67
2021/07/06 05:57:36;;;;;;;5.05;1.05;;;;;;;;;;5020108;28;20017;-68
2021/07/06 06:00:06;;;;;;;1.42;0.80;;;;;;;;;;5028833;28;20048;-68
2021/07/06 06:02:33;;;;;;;5.55;1.17;;;;;;;;;;5042932;28;20029;-68
2021/07/06 06:05:00;;;;;;;3.38;1.02;;;;;;;;;;5051605;28;20025;-68
2021/07/06 06:07:27;;;;;;;3.78;0.90;;;;;;;;;;5047910;28;20024;-68
2021/07/06 06:09:54;;;;;;;4.03;0.65;;;;;;;;;;5056816;28;20033;-68
2021/07/06 06:12:21;;;;;;;4.25;0.65;;;;;;;;;;5044079;28;20108;-68
2021/07/06 06:14:48;;;;;;;4.38;1.25;;;;;;;;;;5020018;28;20083;-67
2021/07/06 06:17:16;;;;;;;4.78;0.93;;;;;;;;;;5045339;28;20037;-68
2021/07/06 06:19:43;;;;;;;4.07;1.17;;;;;;;;;;5045411;28;20521;-66
2021/07/06 06:22:10;;;;;;;3.80;0.90;;;;;;;;;;5035865;28;20485;-68
2021/07/06 06:24:37;;;;;;;2.58;0.70;;;;;;;;;;5032409;28;20032;-68
2021/07/06 06:27:04;;;;;;;4.00;1.23;;;;;;;;;;5033779;28;20106;-68
2021/07/06 06:29:31;;;;;;;2.92;0.70;;;;;;;;;;5049559;28;20036;-68
2021/07/06 06:31:58;;;;;;;2.17;0.80;;;;;;;;;;5036690;28;20017;-68
2021/07/06 06:34:26;;;;;;;3.97;1.15;;;;;;;;;;5027537;28;20037;-68
2021/07/06 06:36:53;;;;;;;3.33;0.75;;;;;;;;;;5045392;28;20029;-67
2021/07/06 06:39:21;;;;;;;2.63;0.80;;;;;;;;;;5044311;28;20367;-69
2021/07/06 06:41:48;;;;;;;4.38;0.90;;;;;;;;;;5052899;28;20025;-69
2021/07/06 06:44:16;;;;;;;4.45;0.70;;;;;;;;;;5052444;28;20032;-69
2021/07/06 06:46:43;;;;;;;4.68;1.30;;;;;;;;;;5048973;28;20402;-68
2021/07/06 06:49:10;;;;;;;4.80;1.23;;;;;;;;;;5043220;28;20044;-69
2021/07/06 06:51:37;;;;;;;3.40;0.75;;;;;;;;;;5039462;28;20028;-70
2021/07/06 06:54:04;;;;;;;3.70;0.63;;;;;;;;;;5041916;28;20105;-70
2021/07/06 06:56:32;;;;;;;6.35;1.67;;;;;;;;;;5033825;28;20399;-69
2021/07/06 06:58:59;;;;;;;5.55;1.05;;;;;;;;;;5038109;28;20014;-68
2021/07/06 07:01:27;;;;;;;3.90;0.73;;;;;;;;;;5045140;28;20033;-67
2021/07/06 07:03:54;;;;;;;6.35;1.08;;;;;;;;;;5046424;28;20029;-67
2021/07/06 07:06:21;;;;;;;6.30;1.10;;;;;;;;;;5045659;28;20032;-68
2021/07/06 07:08:49;;;;;;;3.40;1.15;;;;;;;;;;5039354;28;20178;-67
2021/07/06 07:11:16;;;;;;;5.32;1.00;;;;;;;;;;5030722;28;20413;-67
2021/07/06 07:13:43;;;;;;;4.65;1.20;;;;;;;;;;5027907;28;20033;-67
2021/07/06 07:16:10;;;;;;;3.30;1.17;;;;;;;;;;5048572;28;20037;-68
2021/07/06 07:18:38;;;;;;;6.10;2.15;;;;;;;;;;5044462;28;20013;-68
2021/07/06 07:21:05;;;;;;;5.20;1.15;;;;;;;;;;5050447;28;20044;-68
2021/07/06 07:23:32;;;;;;;6.50;2.38;;;;;;;;;;5040067;28;20021;-67
2021/07/06 07:25:59;;;;;;;8.35;1.55;;;;;;;;;;5048942;28;20025;-67
2021/07/06 07:28:27;;;;;;;3.50;1.60;;;;;;;;;;5037404;28;20082;-67
2021/07/06 07:30:54;;;;;;;7.72;2.10;;;;;;;;;;5030288;28;20464;-68
2021/07/06 07:33:21;;;;;;;10.43;2.35;;;;;;;;;;5027984;28;20025;-69
2021/07/06 07:35:48;;;;;;;8.95;2.60;;;;;;;;;;5040996;28;20074;-68
2021/07/06 07:38:15;;;;;;;11.23;2.72;;;;;;;;;;5050409;28;20021;-68
2021/07/06 07:40:42;;;;;;;9.85;2.65;;;;;;;;;;5034335;28;20033;-68
2021/07/06 07:43:09;;;;;;;10.15;3.85;;;;;;;;;;5035148;28;20025;-68
2021/07/06 07:45:37;;;;;;;10.80;3.83;;;;;;;;;;5037954;28;20029;-68
2021/07/06 07:48:05;;;;;;;11.30;5.57;;;;;;;;;;5046497;28;20108;-68
2021/07/06 07:50:32;;;;;;;12.75;5.75;;;;;;;;;;5048581;28;20055;-67
2021/07/06 07:52:59;;;;;;;11.35;5.45;;;;;;;;;;5047001;28;20028;-66
2021/07/06 07:55:27;;;;;;;17.52;5.60;;;;;;;;;;5036987;28;20028;-66
2021/07/06 07:57:55;;;;;;;12.07;6.68;;;;;;;;;;5053317;28;20051;-67
2021/07/06 08:00:23;;;;;;;15.30;6.05;;;;;;;;;;5019761;28;20041;-67
2021/07/06 08:02:50;;;;;;;16.48;6.40;;;;;;;;;;5036763;28;20048;-67
2021/07/06 08:05:18;;;;;;;15.73;6.88;;;;;;;;;;5052085;28;20025;-67
2021/07/06 08:07:45;;;;;;;19.60;7.03;;;;;;;;;;5044850;28;20024;-67
2021/07/06 08:10:13;;;;;;;18.65;6.40;;;;;;;;;;5058944;28;20056;-67
2021/07/06 08:12:40;;;;;;;10.57;4.75;;;;;;;;;;5050203;28;20021;-68
2021/07/06 08:15:07;;;;;;;12.10;4.70;;;;;;;;;;5056321;28;20021;-68
2021/07/06 08:17:35;;;;;;;11.68;4.32;;;;;;;;;;5049249;28;20028;-68
2021/07/06 08:20:02;;;;;;;8.20;3.80;;;;;;;;;;5049115;28;20068;-69
2021/07/06 08:22:29;;;;;;;11.50;3.33;;;;;;;;;;5039774;28;20033;-69
2021/07/06 08:24:56;;;;;;;7.22;3.70;;;;;;;;;;5040802;28;20112;-69
2021/07/06 08:27:23;;;;;;;8.68;3.17;;;;;;;;;;5033480;28;20032;-68
2021/07/06 08:29:50;;;;;;;11.20;4.65;;;;;;;;;;5053546;28;20025;-68
2021/07/06 08:32:17;;;;;;;15.02;5.38;;;;;;;;;;5042339;28;20029;-68
2021/07/06 08:34:45;;;;;;;10.85;4.90;;;;;;;;;;5072450;28;20097;-68
2021/07/06 08:37:12;;;;;;;13.75;4.72;;;;;;;;;;5016770;28;20025;-68
2021/07/06 08:39:39;;;;;;;15.15;5.70;;;;;;;;;;5043600;28;20030;-68
2021/07/06 08:42:07;;;;;;;12.70;5.63;;;;;;;;;;5034474;28;20507;-68
2021/07/06 08:44:36;;;;;;;13.65;6.07;;;;;;;;;;5019914;28;20045;-69
2021/07/06 08:47:03;;;;;;;20.13;6.85;;;;;;;;;;5054228;28;20032;-69
2021/07/06 08:49:31;;;;;;;18.60;6.85;;;;;;;;;;5048807;28;20036;-69
2021/07/06 08:51:59;;;;;;;22.15;7.82;;;;;;;;;;5051786;28;20044;-69
2021/07/06 08:54:27;;;;;;;16.23;8.80;;;;;;;;;;5051119;28;20119;-68
2021/07/06 08:56:54;;;;;;;18.67;8.75;;;;;;;;;;5056902;28;20021;-68
2021/07/06 08:59:21;;;;;;;18.88;9.30;;;;;;;;;;5036042;28;20036;-68
2021/07/06 09:01:50;;;;;;;20.10;8.45;;;;;;;;;;5036174;28;20044;-68
2021/07/06 09:04:17;;;;;;;16.00;8.25;;;;;;;;;;5058695;28;20013;-68
2021/07/06 09:06:54;;;;;;;20.40;8.13;;;;;;;;;;5052217;28;20017;-67
2021/07/06 09:09:30;;;;;;;19.38;7.28;;;;;;;;;;5048059;28;20105;-67
2021/07/06 09:12:00;;;;;;;17.65;7.05;;;;;;;;;;5020361;28;20481;-67
2021/07/06 09:14:29;;;;;;;19.00;6.88;;;;;;;;;;5051672;28;20029;-68
2021/07/06 09:17:13;;;;;;;20.70;7.05;;;;;;;;;;5061588;28;20392;-68
2021/07/06 09:19:44;;;;;;;15.63;5.70;;;;;;;;;;5047569;28;20017;-68
2021/07/06 09:22:24;;;;;;;15.13;5.72;;;;;;;;;;5056076;28;20508;-68
2021/07/06 09:25:03;;;;;;;14.98;5.15;;;;;;;;;;5027350;28;20036;-69
2021/07/06 09:27:31;;;;;;;10.60;5.30;;;;;;;;;;5053508;28;20021;-69
2021/07/06 09:30:16;;;;;;;12.13;4.93;;;;;;;;;;5025564;28;20156;-68
2021/07/06 09:32:44;;;;;;;12.77;5.30;;;;;;;;;;5058995;28;20020;-69
2021/07/06 09:35:17;;;;;;;20.90;5.55;;;;;;;;;;5051502;28;20041;-69
2021/07/06 09:37:48;;;;;;;11.02;5.22;;;;;;;;;;5036910;28;20111;-69
2021/07/06 09:40:27;;;;;;;14.77;5.30;;;;;;;;;;5039659;28;20086;-68
2021/07/06 09:43:12;;;;;;;11.00;5.25;;;;;;;;;;5033639;28;20037;-68
2021/07/06 09:45:39;;;;;;;11.45;5.72;;;;;;;;;;5054320;28;20049;-68
2021/07/06 09:48:10;;;;;;;14.73;6.05;;;;;;;;;;5044104;28;20502;-68
2021/07/06 09:50:37;;;;;;;14.90;6.63;;;;;;;;;;5050346;28;20033;-68
2021/07/06 09:53:05;;;;;;;10.95;5.72;;;;;;;;;;5061618;28;20547;-68
2021/07/06 09:55:33;;;;;;;11.63;5.90;;;;;;;;;;5050061;28;20033;-68
2021/07/06 09:58:05;;;;;;;11.50;5.80;;;;;;;;;;5062043;28;20017;-68
2021/07/06 10:00:32;;;;;;;13.45;5.00;;;;;;;;;;5058158;28;20029;-69
2021/07/06 10:03:01;;;;;;;16.08;7.20;;;;;;;;;;5046743;28;20028;-67
2021/07/06 10:05:31;;;;;;;19.60;9.02;;;;;;;;;;5044082;28;20029;-67
2021/07/06 10:07:59;;;;;;;19.42;9.02;;;;;;;;;;5056272;28;20488;-68
2021/07/06 10:10:26;;;;;;;20.38;9.10;;;;;;;;;;5045222;28;20108;-68
2021/07/06 10:12:55;;;;;;;14.80;6.30;;;;;;;;;;5051834;28;20121;-68
2021/07/06 10:15:22;;;;;;;13.90;5.93;;;;;;;;;;5056577;28;20474;-68
2021/07/06 10:17:51;;;;;;;14.25;5.93;;;;;;;;;;5057141;28;20056;-68
2021/07/06 10:20:25;;;;;;;14.45;6.32;;;;;;;;;;5049281;28;20039;-68
2021/07/06 10:22:56;;;;;;;16.77;6.33;;;;;;;;;;5040182;28;20041;-67
2021/07/06 10:25:34;;;;;;;15.68;7.40;;;;;;;;;;5056693;28;20261;-68
2021/07/06 10:28:03;;;;;;;12.35;7.30;;;;;;;;;;5038822;28;20037;-68
2021/07/06 10:30:31;;;;;;;20.02;8.75;;;;;;;;;;5021525;28;20036;-67
2021/07/06 10:33:00;;;;;;;18.83;8.43;;;;;;;;;;5051943;28;20418;-67
2021/07/06 10:35:42;;;;;;;14.38;8.15;;;;;;;;;;5038899;28;20112;-67
2021/07/06 10:38:31;;;;;;;13.63;8.10;;;;;;;;;;5038831;28;20032;-67
2021/07/06 10:41:00;;;;;;;20.35;8.65;;;;;;;;;;5021100;28;20563;-67
2021/07/06 10:43:30;;;;;;;14.13;8.30;;;;;;;;;;5047797;28;20021;-67
2021/07/06 10:46:16;;;;;;;14.95;8.68;;;;;;;;;;5053269;28;20044;-67
2021/07/06 10:48:44;;;;;;;12.93;7.85;;;;;;;;;;5026371;28;20531;-68
2021/07/06 10:51:31;;;;;;;17.02;7.40;;;;;;;;;;5042344;28;20082;-67
2021/07/06 10:54:11;;;;;;;17.02;8.25;;;;;;;;;;5017746;28;20123;-67
2021/07/06 10:56:51;;;;;;;15.63;8.23;;;;;;;;;;5027194;28;20506;-67
2021/07/06 10:59:19;;;;;;;18.48;8.13;;;;;;;;;;5045922;28;20041;-67
2021/07/06 11:01:46;;;;;;;15.43;7.82;;;;;;;;;;5043438;28;20087;-67
2021/07/06 11:04:14;;;;;;;14.13;7.88;;;;;;;;;;5052686;28;20031;-67
2021/07/06 11:06:47;;;;;;;17.25;7.97;;;;;;;;;;5051250;28;20097;-67
2021/07/06 11:09:35;;;;;;;18.25;7.95;;;;;;;;;;5034686;28;20040;-68
2021/07/06 11:12:23;;;;;;;12.98;8.20;;;;;;;;;;5047680;28;20012;-67
2021/07/06 11:14:51;;;;;;;13.00;7.32;;;;;;;;;;5049268;28;20381;-67
2021/07/06 11:17:36;;;;;;;13.82;7.65;;;;;;;;;;5050436;28;20021;-67
2021/07/06 11:20:08;;;;;;;12.00;6.88;;;;;;;;;;5014432;28;20041;-68
2021/07/06 11:22:45;;;;;;;14.55;7.22;;;;;;;;;;5026094;28;20104;-68
2021/07/06 11:25:30;;;;;;;12.63;8.43;;;;;;;;;;5042376;28;20529;-67
2021/07/06 11:28:01;;;;;;;12.90;7.85;;;;;;;;;;5052686;28;20028;-67
2021/07/06 11:30:30;;;;;;;11.80;8.00;;;;;;;;;;5044468;28;20025;-67
2021/07/06 11:33:07;;;;;;;13.60;8.27;;;;;;;;;;5046858;28;20047;-67
2021/07/06 11:35:36;;;;;;;13.25;8.20;;;;;;;;;;5051062;28;20477;-67
2021/07/06 11:38:08;;;;;;;16.77;7.95;;;;;;;;;;5048805;28;20032;-67
2021/07/06 11:40:36;;;;;;;10.80;6.82;;;;;;;;;;5051008;28;20036;-67
2021/07/06 11:43:03;;;;;;;15.25;8.15;;;;;;;;;;5047414;28;20029;-67
2021/07/06 11:45:31;;;;;;;15.57;9.20;;;;;;;;;;5026710;28;20107;-67
2021/07/06 11:48:05;;;;;;;12.48;8.27;;;;;;;;;;5020128;28;20380;-68
2021/07/06 11:50:33;;;;;;;19.75;8.77;;;;;;;;;;5045993;28;20512;-67
2021/07/06 11:53:01;;;;;;;14.82;8.90;;;;;;;;;;5042918;28;20024;-68
2021/07/06 11:55:28;;;;;;;17.85;10.20;;;;;;;;;;5040539;28;20387;-68
2021/07/06 11:57:57;;;;;;;20.38;10.95;;;;;;;;;;5058464;28;20048;-68
2021/07/06 12:00:25;;;;;;;16.80;9.63;;;;;;;;;;5042788;28;20060;-68
2021/07/06 12:02:52;;;;;;;15.93;9.57;;;;;;;;;;5057953;28;20021;-68
2021/07/06 12:05:20;;;;;;;15.93;9.15;;;;;;;;;;5061577;28;20553;-68
2021/07/06 12:07:47;;;;;;;18.13;9.20;;;;;;;;;;5057853;28;20075;-68
2021/07/06 12:10:14;;;;;;;17.63;9.85;;;;;;;;;;5036741;28;20028;-68
2021/07/06 12:12:41;;;;;;;17.67;9.88;;;;;;;;;;5035688;28;20017;-66
2021/07/06 12:15:09;;;;;;;22.52;10.38;;;;;;;;;;5050176;28;20025;-68
2021/07/06 12:17:36;;;;;;;19.33;10.23;;;;;;;;;;5051052;28;20432;-68
2021/07/06 12:20:05;;;;;;;17.25;10.18;;;;;;;;;;5054930;28;20033;-68
2021/07/06 12:22:32;;;;;;;18.80;9.48;;;;;;;;;;5054324;28;20048;-68
2021/07/06 12:24:59;;;;;;;20.30;10.15;;;;;;;;;;5035101;28;20035;-68
2021/07/06 12:27:26;;;;;;;20.20;9.15;;;;;;;;;;5053985;28;20772;-68
2021/07/06 12:30:01;;;;;;;20.08;8.52;;;;;;;;;;5045057;28;20041;-68
2021/07/06 12:32:29;;;;;;;13.10;8.13;;;;;;;;;;5051377;28;20036;-66
2021/07/06 12:34:57;;;;;;;13.77;8.27;;;;;;;;;;5056262;28;20459;-66
2021/07/06 12:37:28;;;;;;;15.00;7.63;;;;;;;;;;5047052;28;20032;-69
2021/07/06 12:40:06;;;;;;;14.98;8.05;;;;;;;;;;5060626;28;20492;-66
2021/07/06 12:42:37;;;;;;;14.88;7.03;;;;;;;;;;5045011;28;20029;-66
2021/07/06 12:45:07;;;;;;;13.38;6.85;;;;;;;;;;5056263;28;20009;-67
2021/07/06 12:47:38;;;;;;;14.80;6.50;;;;;;;;;;5054264;28;20021;-68
2021/07/06 12:50:08;;;;;;;12.52;5.45;;;;;;;;;;5028082;28;20485;-67
2021/07/06 12:52:36;;;;;;;11.27;5.20;;;;;;;;;;5054077;28;20048;-67
2021/07/06 12:55:22;;;;;;;8.20;5.30;;;;;;;;;;5056457;28;20027;-67
2021/07/06 12:57:50;;;;;;;16.02;5.90;;;;;;;;;;5053214;28;20639;-68
2021/07/06 13:00:25;;;;;;;8.02;4.10;;;;;;;;;;5053033;28;20033;-67
2021/07/06 13:02:53;;;;;;;14.15;4.43;;;;;;;;;;5037815;28;20036;-67
2021/07/06 13:05:20;;;;;;;7.85;4.47;;;;;;;;;;5019494;28;20033;-66
2021/07/06 13:07:47;;;;;;;10.57;4.25;;;;;;;;;;5036954;28;20025;-67
2021/07/06 13:10:14;;;;;;;12.10;3.72;;;;;;;;;;5037543;28;20041;-67
2021/07/06 13:12:43;;;;;;;7.47;4.47;;;;;;;;;;5053277;28;20074;-67
2021/07/06 13:15:19;;;;;;;9.52;3.28;;;;;;;;;;5030019;28;20103;-67
2021/07/06 13:17:47;;;;;;;10.18;3.55;;;;;;;;;;5055692;28;20373;-68
2021/07/06 13:20:19;;;;;;;12.23;3.08;;;;;;;;;;5054920;28;20029;-67
2021/07/06 13:22:47;;;;;;;6.45;2.47;;;;;;;;;;5046747;28;20103;-67
2021/07/06 13:25:16;;;;;;;11.88;2.58;;;;;;;;;;5052078;28;20025;-67
2021/07/06 13:27:43;;;;;;;8.18;2.72;;;;;;;;;;5053920;28;20025;-67
2021/07/06 13:30:11;;;;;;;7.18;2.65;;;;;;;;;;5053589;28;20108;-67
2021/07/06 13:32:44;;;;;;;8.98;2.53;;;;;;;;;;5055391;28;20032;-67
2021/07/06 13:35:12;;;;;;;5.50;2.20;;;;;;;;;;5034666;28;20057;-68
2021/07/06 13:37:39;;;;;;;4.55;2.15;;;;;;;;;;5049205;28;20024;-67
2021/07/06 13:40:09;;;;;;;5.25;1.77;;;;;;;;;;5053260;28;20043;-67
2021/07/06 13:42:37;;;;;;;6.15;2.08;;;;;;;;;;5056172;28;20478;-67
2021/07/06 13:45:05;;;;;;;6.88;2.22;;;;;;;;;;5069635;28;20025;-67
2021/07/06 13:47:32;;;;;;;2.88;1.67;;;;;;;;;;5034720;28;20048;-67
2021/07/06 13:49:59;;;;;;;6.68;1.65;;;;;;;;;;5047612;28;20025;-67
2021/07/06 13:52:26;;;;;;;5.72;1.95;;;;;;;;;;5044142;28;20140;-67
2021/07/06 13:54:53;;;;;;;6.28;1.77;;;;;;;;;;5062614;28;20086;-67
2021/07/06 13:57:22;;;;;;;6.85;1.88;;;;;;;;;;5051455;28;20158;-67
2021/07/06 13:59:50;;;;;;;4.63;1.70;;;;;;;;;;5052985;28;20029;-67
2021/07/06 14:02:18;;;;;;;8.70;1.73;;;;;;;;;;5047901;28;20036;-67
2021/07/06 14:04:49;;;;;;;4.82;1.40;;;;;;;;;;5055022;28;20514;-67
2021/07/06 14:07:17;;;;;;;3.45;1.30;;;;;;;;;;5050983;28;20021;-67
2021/07/06 14:09:44;;;;;;;4.53;1.40;;;;;;;;;;5045675;28;20029;-68
2021/07/06 14:12:15;;;;;;;3.00;1.33;;;;;;;;;;5057026;28;20100;-67
2021/07/06 14:14:43;;;;;;;4.45;0.95;;;;;;;;;;5053460;28;20016;-67
2021/07/06 14:17:10;;;;;;;4.63;1.42;;;;;;;;;;5053504;28;20035;-67
2021/07/06 14:19:37;;;;;;;4.50;1.60;;;;;;;;;;5042259;28;20428;-67
2021/07/06 14:22:05;;;;;;;4.65;1.02;;;;;;;;;;5051753;28;20071;-67
2021/07/06 14:24:35;;;;;;;3.70;1.20;;;;;;;;;;5049544;28;20113;-67
2021/07/06 14:27:03;;;;;;;2.65;1.00;;;;;;;;;;5044723;28;20064;-67
2021/07/06 14:29:31;;;;;;;2.75;1.38;;;;;;;;;;5049090;28;20086;-67
2021/07/06 14:31:58;;;;;;;3.65;1.15;;;;;;;;;;5055230;28;20496;-67
2021/07/06 14:34:25;;;;;;;1.73;0.90;;;;;;;;;;5062015;28;20115;-67
2021/07/06 14:36:52;;;;;;;1.90;1.10;;;;;;;;;;5037011;28;20521;-67
2021/07/06 14:39:20;;;;;;;3.00;1.08;;;;;;;;;;5050745;28;20654;-67
2021/07/06 14:41:53;;;;;;;4.53;1.30;;;;;;;;;;5054745;28;20037;-67
2021/07/06 14:44:22;;;;;;;1.70;0.82;;;;;;;;;;5048987;28;20033;-66
2021/07/06 14:46:50;;;;;;;2.75;1.13;;;;;;;;;;5065413;28;20030;-66
2021/07/06 14:49:17;;;;;;;4.75;1.08;;;;;;;;;;5049837;28;20449;-67